Balmat, New York
Current Conditions -  °F | °C
As of 3:26 AM on Monday 24 Nov 2014 (Local Time) from KGTB Reporting Station
Overcast Overcast  
Wind Chill:   Ceiling: 8500
Heat Index:   Visibility: 10mi
Dew Point:   Wind: 29mph
Humidity: 93%   Direction: 150°SSE
Pressure: 29.55"   Gusts: 35mph
Location:  44.2483°N, 75.3953°W
Report Text: KGTB 240826Z AUTO 15025G30KT 10SM OVC085 07/06 A2955 RMK AO2 RAE0826DZB0809E0811 PRESFR
Loading
Personal Weather Stations






























Interactive Weather Map New forecast layout! Learn more

10-Day Weather Forecast

Advertisements
Track Severe Weather on mobile